Time;durP1;ratioP1;P1;durP2;ratioP2;P2;SDS_P1;SDS_P2;PMS_P1;PMS_P2;Temp;Humidity;BMP_temperature;BMP_pressure;BME280_temperature;BME280_humidity;BME280_pressure;Samples;Min_cycle;Max_cycle;Signal;HPM_P1;HPM_P2
2022/04/23 00:01:27;;;;;;;16.67;8.00;;;;;;;8.10;82.40;91457.63;4830854;29;20034;-90
2022/04/23 00:04:00;;;;;;;14.75;7.85;;;;;;;8.05;82.26;91455.13;4796953;29;20050;-89
2022/04/23 00:06:30;;;;;;;15.57;6.85;;;;;;;8.10;82.15;91462.84;4809239;29;20039;-90
2022/04/23 00:09:14;;;;;;;12.82;6.93;;;;;;;8.08;81.56;91464.19;4796498;29;20045;-89
2022/04/23 00:11:59;;;;;;;11.82;6.35;;;;;;;8.08;81.98;91448.56;4780073;29;20049;-89
2022/04/23 00:14:43;;;;;;;14.25;7.32;;;;;;;8.08;81.78;91454.56;4791057;29;20050;-90
2022/04/23 00:17:33;;;;;;;10.38;5.90;;;;;;;8.40;80.61;91494.53;4795102;29;20125;-90
2022/04/23 00:20:21;;;;;;;9.80;5.65;;;;;;;8.20;80.16;91467.06;4792477;29;20045;-90
2022/04/23 00:23:16;;;;;;;8.80;5.70;;;;;;;8.10;80.96;91462.84;4787111;29;20040;-90
2022/04/23 00:25:51;;;;;;;8.73;5.53;;;;;;;8.09;80.90;91466.50;4795016;29;20043;-89
2022/04/23 00:28:29;;;;;;;10.05;5.78;;;;;;;8.40;81.19;91523.22;4785150;29;20555;-91
2022/04/23 00:31:08;;;;;;;10.02;6.00;;;;;;;8.18;81.37;91478.84;4811721;29;20042;-90
2022/04/23 00:33:40;;;;;;;9.90;6.20;;;;;;;8.21;81.42;91484.22;4796049;29;20034;-90
2022/04/23 00:36:14;;;;;;;12.07;6.60;;;;;;;8.24;81.76;91485.47;4796478;29;20101;-90
2022/04/23 00:38:49;;;;;;;9.38;5.93;;;;;;;8.06;82.20;91459.28;4807781;29;20491;-90
2022/04/23 00:44:39;;;;;;;9.98;6.15;;;;;;;8.08;82.02;91462.38;4830031;29;20046;-91
2022/04/23 00:47:22;;;;;;;11.02;6.85;;;;;;;8.23;82.04;91481.34;4835611;29;20063;-91
2022/04/23 00:50:02;;;;;;;11.25;6.82;;;;;;;8.23;82.20;91486.56;4816920;29;20026;-91
2022/04/23 00:52:37;;;;;;;15.23;7.30;;;;;;;8.24;82.40;91483.66;4814068;29;20066;-90
2022/04/23 00:55:11;;;;;;;12.95;8.07;;;;;;;8.32;82.02;91506.41;4794915;29;20039;-90
2022/04/23 00:57:37;;;;;;;12.05;7.18;;;;;;;8.12;82.26;91470.38;4808805;29;20042;-90
2022/04/23 01:00:18;;;;;;;13.93;7.63;;;;;;;8.33;82.96;91501.94;4808345;29;20041;-89
2022/04/23 01:03:05;;;;;;;13.52;7.45;;;;;;;8.09;82.95;91474.34;4813506;29;20068;-90
2022/04/23 01:05:55;;;;;;;9.50;5.78;;;;;;;8.01;83.78;91464.59;4780610;29;20049;-90
2022/04/23 01:08:26;;;;;;;12.05;5.97;;;;;;;8.10;83.49;91475.09;4823986;29;20141;-90
2022/04/23 01:11:09;;;;;;;11.02;5.53;;;;;;;8.38;83.56;91520.13;4824187;29;20055;-90
2022/04/23 01:13:51;;;;;;;10.45;5.63;;;;;;;8.08;83.84;91477.22;4809280;29;20034;-90
2022/04/23 01:16:20;;;;;;;9.73;5.53;;;;;;;8.19;84.71;91493.41;4823674;29;20042;-90
2022/04/23 01:18:51;;;;;;;8.75;5.90;;;;;;;8.00;84.67;91454.50;4804950;29;20469;-90
2022/04/23 01:21:34;;;;;;;11.23;5.80;;;;;;;8.04;85.49;91461.44;4815488;29;20069;-90
2022/04/23 01:24:12;;;;;;;;;;;;;;;;;;;;;
2022/04/23 01:26:56;;;;;;;12.52;5.57;;;;;;;8.00;86.91;91452.66;4824495;29;20030;-89
2022/04/23 01:29:41;;;;;;;9.75;5.68;;;;;;;8.08;86.83;91478.03;4797118;29;20046;-90
2022/04/23 01:32:26;;;;;;;8.73;5.55;;;;;;;8.19;86.96;91486.38;4793281;29;20035;-89
2022/04/23 01:34:52;;;;;;;9.02;5.60;;;;;;;8.24;87.85;91494.09;4775728;29;20061;-90
2022/04/23 01:37:44;;;;;;;11.68;5.55;;;;;;;8.23;88.28;91491.78;4772341;30;20027;-89
2022/04/23 01:40:27;;;;;;;10.70;5.47;;;;;;;8.27;87.64;91501.31;4771293;29;20034;-89
2022/04/23 01:43:04;;;;;;;7.75;4.82;;;;;;;8.29;87.69;91511.47;4771713;29;20060;-90
2022/04/23 01:45:38;;;;;;;9.13;5.28;;;;;;;7.90;87.69;91453.66;4783647;29;20034;-90
2022/04/23 01:48:10;;;;;;;13.52;5.78;;;;;;;8.03;87.71;91470.28;4808325;29;20042;-90
2022/04/23 01:50:53;;;;;;;11.68;5.78;;;;;;;8.06;87.80;91485.38;4809676;29;20042;-90
2022/04/23 01:53:25;;;;;;;10.82;5.95;;;;;;;7.86;88.27;91450.09;4793482;29;20034;-90
2022/04/23 01:56:15;;;;;;;10.43;6.28;;;;;;;7.92;88.60;91467.16;4810166;29;20476;-90
2022/04/23 01:58:46;;;;;;;9.23;5.68;;;;;;;7.84;88.73;91446.25;4823374;29;20043;-89
2022/04/23 02:01:30;;;;;;;8.65;5.85;;;;;;;8.21;88.68;91501.72;4799141;29;20379;-90
2022/04/23 02:04:07;;;;;;;8.80;5.60;;;;;;;8.17;89.03;91498.91;4798107;29;20495;-90
2022/04/23 02:06:56;;;;;;;;;;;;;;;;;;;;;
2022/04/23 02:09:33;;;;;;;;;;;;;;;;;;;;;
2022/04/23 02:12:05;;;;;;;9.48;6.20;;;;;;;7.93;90.73;91465.31;4840578;29;20065;-91
2022/04/23 02:14:41;;;;;;;10.82;6.30;;;;;;;7.75;91.09;91440.19;4839869;29;20105;-92
2022/04/23 02:17:20;;;;;;;14.15;6.07;;;;;;;7.93;92.99;91454.91;4828100;29;20034;-90
2022/04/23 02:20:11;;;;;;;13.07;6.53;;;;;;;8.01;93.31;91474.25;4842152;29;20037;-92
2022/04/23 02:22:57;;;;;;;;;;;;;;;;;;;;;
2022/04/23 02:25:26;;;;;;;10.90;5.90;;;;;;;7.76;92.61;91446.94;4828055;29;20122;-90
2022/04/23 02:28:10;;;;;;;11.45;6.40;;;;;;;7.71;92.17;91445.97;4830502;29;20029;-90
2022/04/23 02:30:52;;;;;;;9.13;5.60;;;;;;;8.02;91.60;91502.66;4830347;29;20068;-89
2022/04/23 02:33:34;;;;;;;14.80;5.60;;;;;;;7.65;91.63;91446.38;4806598;29;20044;-90
2022/04/23 02:39:01;;;;;;;10.30;6.00;;;;;;;7.59;91.12;91448.31;4838656;29;20061;-90
2022/04/23 02:41:47;;;;;;;12.70;6.07;;;;;;;7.65;91.50;91456.78;4829918;29;20495;-90
2022/04/23 02:44:33;;;;;;;;;;;;;;;;;;;;;
2022/04/23 02:47:16;;;;;;;;;;;;;;;;;;;;;
2022/04/23 02:49:54;;;;;;;9.38;5.78;;;;;;;7.44;90.77;91444.19;4829579;29;20045;-90
2022/04/23 02:52:22;;;;;;;10.05;6.60;;;;;;;7.43;91.63;91441.88;4814228;29;20066;-90
2022/04/23 02:54:56;;;;;;;10.23;6.50;;;;;;;7.70;92.25;91483.50;4830127;29;20041;-90
2022/04/23 02:57:32;;;;;;;9.98;6.43;;;;;;;7.44;92.13;91453.84;4844404;29;20475;-90
2022/04/23 02:59:58;;;;;;;17.05;6.50;;;;;;;7.44;91.79;91457.19;4814472;29;20055;-90
2022/04/23 03:02:34;;;;;;;10.43;6.60;;;;;;;7.42;91.58;91453.34;4813896;29;20022;-90
2022/04/23 03:05:15;;;;;;;10.55;6.65;;;;;;;7.37;92.76;91454.22;4828768;29;20535;-90
2022/04/23 03:08:03;;;;;;;;;;;;;;;;;;;;;
2022/04/23 03:10:33;;;;;;;12.85;6.13;;;;;;;7.50;92.21;91476.13;4831324;29;20026;-90
2022/04/23 03:13:12;;;;;;;12.13;7.40;;;;;;;7.46;92.59;91475.16;4828343;29;20040;-89
2022/04/23 03:16:01;;;;;;;13.60;7.47;;;;;;;7.30;93.01;91457.22;4814373;29;20034;-89
2022/04/23 03:18:44;;;;;;;;;;;;;;;;;;;;;
2022/04/23 03:21:28;;;;;;;;;;;;;;;;;;;;;
2022/04/23 03:24:07;;;;;;;10.23;6.57;;;;;;;7.53;93.72;91490.38;4816028;29;20065;-89
2022/04/23 03:27:13;;;;;;;10.07;6.50;;;;;;;7.22;93.03;91452.69;4816710;29;20048;-89
2022/04/23 03:29:44;;;;;;;12.60;6.75;;;;;;;7.23;93.11;91449.03;4811088;29;20041;-89
2022/04/23 03:32:23;;;;;;;;;;;;;;;;;;;;;
2022/04/23 03:35:04;;;;;;;;;;;;;;;;;;;;;
2022/04/23 03:37:41;;;;;;;13.55;7.25;;;;;;;7.55;94.47;91502.06;4817014;29;20137;-90
2022/04/23 03:40:15;;;;;;;11.13;7.38;;;;;;;7.23;94.43;91454.25;4814483;29;20517;-90
2022/04/23 03:42:45;;;;;;;13.05;7.50;;;;;;;7.36;94.81;91480.53;4828256;29;20033;-90
2022/04/23 03:45:28;;;;;;;12.57;7.13;;;;;;;7.39;95.20;91482.59;4827686;29;20033;-90
2022/04/23 03:48:12;;;;;;;13.63;7.95;;;;;;;7.20;95.87;91456.66;4798990;29;20495;-90
2022/04/23 03:50:59;;;;;;;22.33;9.20;;;;;;;7.47;96.03;91495.66;4843338;29;20046;-89
2022/04/23 03:53:36;;;;;;;15.02;9.07;;;;;;;7.19;96.05;91461.09;4846045;29;20048;-89
2022/04/23 03:56:08;;;;;;;18.45;10.40;;;;;;;7.22;96.05;91473.50;4813293;29;20488;-89
2022/04/23 03:58:52;;;;;;;17.98;9.02;;;;;;;7.14;96.49;91457.78;4815678;29;20026;-89
2022/04/23 04:01:36;;;;;;;13.35;8.82;;;;;;;7.41;96.82;91498.69;4816168;29;20042;-89
2022/04/23 04:04:26;;;;;;;;;;;;;;;;;;;;;
2022/04/23 04:07:10;;;;;;;;;;;;;;;;;;;;;
2022/04/23 04:10:04;;;;;;;;;;;;;;;;;;;;;
2022/04/23 04:12:31;;;;;;;17.90;8.48;;;;;;;7.15;97.84;91460.13;4810155;29;20042;-89
2022/04/23 04:15:18;;;;;;;15.10;8.30;;;;;;;7.22;97.77;91465.69;4828690;29;20030;-90
2022/04/23 04:18:15;;;;;;;;;;;;;;;;;;;;;
2022/04/23 04:20:50;;;;;;;11.43;7.20;;;;;;;7.45;97.71;91494.44;4840675;29;20098;-93
2022/04/23 04:23:31;;;;;;;;;;;;;;;;;;;;;
2022/04/23 04:26:13;;;;;;;;;;;;;;;;;;;;;
2022/04/23 04:28:53;;;;;;;13.85;6.88;;;;;;;7.23;98.09;91451.63;4839146;29;20038;-89
2022/04/23 04:31:51;;;;;;;13.25;7.30;;;;;;;7.09;97.96;91422.22;4795075;29;20484;-91
2022/04/23 04:34:30;;;;;;;12.68;7.45;;;;;;;7.38;99.55;91483.63;4819598;29;20441;-90
2022/04/23 04:37:23;;;;;;;14.80;7.63;;;;;;;7.15;99.13;91467.91;4822774;29;20453;-90
2022/04/23 04:40:01;;;;;;;13.90;7.70;;;;;;;6.99;99.44;91445.84;4820302;29;20030;-89
2022/04/23 04:42:48;;;;;;;15.00;7.70;;;;;;;6.94;100.00;91451.16;4806023;29;20042;-89
2022/04/23 04:45:24;;;;;;;16.60;8.20;;;;;;;7.10;99.48;91491.44;4824932;29;20045;-86
2022/04/23 04:47:52;;;;;;;15.63;8.60;;;;;;;6.88;99.38;91434.84;4808476;29;20134;-85
2022/04/23 04:50:23;;;;;;;15.32;8.07;;;;;;;7.12;99.54;91471.13;4810275;29;20062;-85
2022/04/23 04:52:49;;;;;;;15.55;8.80;;;;;;;7.10;99.68;91465.44;4823248;29;20046;-86
2022/04/23 04:55:15;;;;;;;18.48;9.32;;;;;;;7.14;99.09;91469.00;4808993;29;20055;-86
2022/04/23 04:57:42;;;;;;;16.73;8.82;;;;;;;7.11;98.68;91459.16;4794621;29;20553;-86
2022/04/23 05:00:08;;;;;;;19.00;8.88;;;;;;;7.24;99.00;91474.00;4812704;29;20026;-85
2022/04/23 05:02:37;;;;;;;16.67;9.20;;;;;;;7.24;99.44;91468.78;4822086;29;20117;-85
2022/04/23 05:05:04;;;;;;;19.30;9.25;;;;;;;7.12;99.43;91455.50;4826992;29;20080;-85
2022/04/23 05:07:29;;;;;;;17.67;9.50;;;;;;;7.27;99.30;91475.25;4828228;29;20133;-88
2022/04/23 05:10:00;;;;;;;18.63;9.48;;;;;;;7.02;98.95;91445.25;4827484;29;20061;-86
2022/04/23 05:12:25;;;;;;;17.15;9.45;;;;;;;6.96;99.08;91436.81;4828037;29;20041;-87
2022/04/23 05:14:53;;;;;;;19.20;9.45;;;;;;;7.13;99.08;91462.22;4825232;29;20070;-87
2022/04/23 05:17:19;;;;;;;18.10;9.65;;;;;;;7.39;100.00;91490.41;4796813;29;20030;-87
2022/04/23 05:19:45;;;;;;;17.98;9.73;;;;;;;7.16;100.00;91471.28;4795155;29;20050;-85
2022/04/23 05:22:11;;;;;;;20.67;10.93;;;;;;;7.18;100.00;91469.97;4815741;29;20046;-86
2022/04/23 05:24:38;;;;;;;25.83;11.52;;;;;;;7.11;100.00;91448.72;4809833;29;20030;-85
2022/04/23 05:27:06;;;;;;;31.08;13.07;;;;;;;7.44;100.00;91492.91;4831512;29;20187;-86
2022/04/23 05:29:31;;;;;;;24.10;11.55;;;;;;;7.18;100.00;91448.34;4826021;29;20484;-87
2022/04/23 05:31:57;;;;;;;22.90;11.43;;;;;;;7.43;99.86;91480.91;4828364;29;20065;-85
2022/04/23 05:34:28;;;;;;;25.50;11.30;;;;;;;7.28;99.66;91454.13;4808643;29;20052;-87
2022/04/23 05:36:54;;;;;;;21.25;10.43;;;;;;;7.22;99.57;91442.28;4805001;29;20097;-86
2022/04/23 05:39:30;;;;;;;21.88;10.82;;;;;;;7.25;99.85;91452.13;4817092;29;20379;-86
2022/04/23 05:41:56;;;;;;;20.98;10.50;;;;;;;7.44;99.44;91474.66;4829529;29;20089;-86
2022/04/23 05:44:22;;;;;;;22.38;10.38;;;;;;;7.43;98.97;91473.91;4821724;29;20041;-86
2022/04/23 05:46:50;;;;;;;20.48;10.30;;;;;;;7.25;98.91;91453.94;4809236;29;20034;-87
2022/04/23 05:49:18;;;;;;;21.73;10.50;;;;;;;7.39;98.88;91485.19;4826100;29;20042;-86
2022/04/23 05:51:44;;;;;;;26.08;11.30;;;;;;;7.32;98.90;91479.56;4818656;29;20121;-85
2022/04/23 05:54:14;;;;;;;27.42;11.57;;;;;;;7.33;99.45;91481.91;4824322;29;20042;-86
2022/04/23 05:56:40;;;;;;;26.95;12.13;;;;;;;7.62;98.77;91523.25;4826039;29;20042;-87
2022/04/23 05:59:10;;;;;;;26.05;12.10;;;;;;;7.36;98.64;91496.16;4826438;29;20106;-86
2022/04/23 06:01:38;;;;;;;26.40;12.73;;;;;;;7.35;99.41;91492.78;4825962;29;20045;-85
2022/04/23 06:04:14;;;;;;;25.73;11.75;;;;;;;7.40;99.57;91510.91;4826207;29;20479;-86
2022/04/23 06:06:40;;;;;;;27.75;12.27;;;;;;;7.38;99.85;91509.66;4802016;29;20068;-86
2022/04/23 06:09:05;;;;;;;28.02;12.60;;;;;;;7.32;99.87;91490.00;4825889;29;20030;-86
2022/04/23 06:11:34;;;;;;;30.48;12.70;;;;;;;7.50;99.85;91523.00;4810910;29;20048;-85
2022/04/23 06:14:02;;;;;;;25.83;11.85;;;;;;;7.38;98.43;91512.28;4813125;29;20053;-87
2022/04/23 06:16:27;;;;;;;28.02;11.05;;;;;;;7.45;98.14;91531.66;4820845;29;20019;-85
2022/04/23 06:18:55;;;;;;;23.77;11.32;;;;;;;7.37;96.63;91513.34;4823490;29;20134;-85
2022/04/23 06:21:23;;;;;;;25.98;13.52;;;;;;;7.27;97.55;91538.50;4826500;29;20427;-87
2022/04/23 06:23:49;;;;;;;32.72;14.18;;;;;;;7.10;99.55;91509.66;4810292;29;20057;-86
2022/04/23 06:26:18;;;;;;;30.55;14.57;;;;;;;7.08;100.00;91506.56;4825407;29;20034;-85
2022/04/23 06:28:44;;;;;;;32.70;14.57;;;;;;;7.12;100.00;91512.00;4826294;29;20463;-85
2022/04/23 06:31:14;;;;;;;34.78;14.80;;;;;;;7.36;99.98;91543.03;4807052;29;20037;-87
2022/04/23 06:33:42;;;;;;;32.97;14.88;;;;;;;7.19;100.00;91514.97;4811606;29;20554;-86
2022/04/23 06:36:13;;;;;;;34.80;15.02;;;;;;;7.12;100.00;91507.56;4799724;29;20038;-85
2022/04/23 06:38:41;;;;;;;41.08;16.38;;;;;;;7.15;99.95;91506.97;4839693;29;20069;-86
2022/04/23 06:41:09;;;;;;;45.05;18.10;;;;;;;7.51;99.93;91553.16;4811409;29;20384;-85
2022/04/23 06:43:38;;;;;;;47.20;18.38;;;;;;;7.44;99.83;91534.56;4805042;29;20476;-87
2022/04/23 06:46:04;;;;;;;45.20;17.13;;;;;;;7.38;98.83;91530.50;4791695;29;20054;-85
2022/04/23 06:48:34;;;;;;;45.22;17.50;;;;;;;7.58;96.22;91556.16;4816190;29;20460;-85
2022/04/23 06:51:02;;;;;;;47.60;19.30;;;;;;;7.61;96.62;91554.78;4844355;29;20132;-85
2022/04/23 06:53:31;;;;;;;51.83;19.58;;;;;;;7.50;97.42;91533.41;4797204;29;20053;-85
2022/04/23 06:55:56;;;;;;;53.47;19.67;;;;;;;7.60;97.43;91556.63;4805138;29;20369;-85
2022/04/23 06:58:25;;;;;;;51.28;18.95;;;;;;;7.24;96.92;91502.63;4825898;29;20042;-87
2022/04/23 07:00:52;;;;;;;52.45;19.17;;;;;;;7.34;97.46;91513.91;4834967;29;20025;-85
2022/04/23 07:03:20;;;;;;;42.85;18.48;;;;;;;7.46;96.92;91543.63;4845978;29;20046;-86
2022/04/23 07:05:46;;;;;;;50.15;16.55;;;;;;;7.19;95.25;91515.75;4815845;29;20106;-86
2022/04/23 07:08:24;;;;;;;37.17;15.40;;;;;;;7.23;95.21;91508.91;4812002;29;20039;-86
2022/04/23 07:10:51;;;;;;;43.30;16.80;;;;;;;7.78;95.40;91554.22;4836998;29;20042;-85
2022/04/23 07:13:25;;;;;;;40.92;17.45;;;;;;;7.46;94.28;91527.22;4842367;29;20375;-86
2022/04/23 07:15:51;;;;;;;40.08;16.88;;;;;;;7.56;94.70;91527.03;4830089;29;20048;-86
2022/04/23 07:18:21;;;;;;;44.83;18.17;;;;;;;7.74;95.34;91548.03;4816775;29;20053;-87
2022/04/23 07:20:53;;;;;;;40.67;17.80;;;;;;;7.48;95.78;91499.06;4787910;29;20132;-89
2022/04/23 07:26:02;;;;;;;43.63;17.05;;;;;;;7.54;95.51;91512.75;4820515;29;20041;-88
2022/04/23 07:28:37;;;;;;;38.30;15.15;;;;;;;7.75;94.03;91547.00;4828260;29;20034;-89
2022/04/23 07:31:03;;;;;;;43.05;16.23;;;;;;;7.77;94.69;91550.06;4813226;29;20081;-89
2022/04/23 07:38:59;;;;;;;42.92;16.95;;;;;;;8.03;95.81;91577.16;4828137;29;20056;-89
2022/04/23 07:41:27;;;;;;;44.92;16.02;;;;;;;8.08;96.00;91579.69;4814937;29;20061;-89
2022/04/23 07:43:54;;;;;;;35.40;13.63;;;;;;;8.06;94.01;91581.00;4794553;29;20034;-87
2022/04/23 07:46:22;;;;;;;40.78;14.00;;;;;;;7.96;93.55;91555.94;4845656;29;20042;-89
2022/04/23 07:48:47;;;;;;;34.25;14.20;;;;;;;8.09;92.14;91576.00;4814190;29;20042;-89
2022/04/23 07:51:20;;;;;;;40.25;15.32;;;;;;;8.03;93.53;91579.75;4815481;29;20053;-89
2022/04/23 07:53:45;;;;;;;35.92;15.35;;;;;;;8.02;91.76;91591.25;4819685;29;20037;-94
2022/04/23 07:56:11;;;;;;;37.65;15.95;;;;;;;8.06;93.50;91579.19;4824722;29;20019;-93
2022/04/23 07:58:37;;;;;;;30.27;14.80;;;;;;;8.11;91.57;91568.66;4840552;29;20042;-87
2022/04/23 08:01:05;;;;;;;43.15;15.07;;;;;;;7.88;91.84;91564.44;4870567;29;20089;-88
2022/04/23 08:03:30;;;;;;;41.95;16.05;;;;;;;7.93;92.14;91578.13;4830139;29;20133;-86
2022/04/23 08:05:57;;;;;;;38.90;15.13;;;;;;;8.03;92.16;91592.03;4826784;29;20195;-87
2022/04/23 08:08:22;;;;;;;43.75;16.88;;;;;;;7.83;92.29;91561.94;4807305;29;20114;-88
2022/04/23 08:10:48;;;;;;;41.17;15.38;;;;;;;8.13;92.15;91592.59;4807487;29;20429;-89
2022/04/23 08:13:13;;;;;;;40.88;14.85;;;;;;;8.15;91.43;91594.91;4814805;29;20057;-89
2022/04/23 08:15:39;;;;;;;48.15;19.27;;;;;;;8.07;93.65;91608.63;4800954;29;20042;-88
2022/04/23 08:18:06;;;;;;;44.03;17.00;;;;;;;8.22;94.48;91604.94;4809548;29;20076;-88
2022/04/23 08:20:32;;;;;;;43.50;17.42;;;;;;;8.18;92.41;91599.53;4805862;29;20031;-88
2022/04/23 08:22:57;;;;;;;48.78;17.65;;;;;;;8.33;92.50;91606.25;4801682;29;20078;-90
2022/04/23 08:25:23;;;;;;;49.42;18.35;;;;;;;8.30;91.84;91609.47;4788311;29;20058;-87
2022/04/23 08:27:50;;;;;;;41.80;16.30;;;;;;;8.27;90.95;91597.03;4808859;29;20045;-89
2022/04/23 08:30:34;;;;;;;40.80;16.90;;;;;;;8.38;90.07;91602.78;4802847;29;20476;-88
2022/04/23 08:33:04;;;;;;;46.17;16.50;;;;;;;8.42;88.67;91601.94;4815260;29;20116;-90
2022/04/23 08:35:35;;;;;;;47.70;17.63;;;;;;;8.52;89.32;91612.16;4805476;29;20038;-88
2022/04/23 08:38:01;;;;;;;47.15;18.15;;;;;;;8.36;90.31;91616.13;4810453;29;20045;-88
2022/04/23 08:40:29;;;;;;;57.53;18.95;;;;;;;8.41;88.98;91618.63;4779270;29;20042;-89
2022/04/23 08:42:57;;;;;;;47.78;17.67;;;;;;;8.35;90.53;91609.34;4795600;29;20059;-88
2022/04/23 08:45:23;;;;;;;51.20;18.35;;;;;;;8.50;90.67;91616.13;4823530;29;20175;-89
2022/04/23 08:47:51;;;;;;;57.05;17.73;;;;;;;8.61;90.75;91621.88;4793408;29;20117;-89
2022/04/23 08:50:20;;;;;;;49.00;18.45;;;;;;;8.71;88.77;91627.66;4813690;29;20490;-89
2022/04/23 08:52:55;;;;;;;54.05;18.02;;;;;;;8.83;88.42;91613.31;4828109;29;20034;-89
2022/04/23 08:55:21;;;;;;;34.30;14.07;;;;;;;8.78;84.88;91616.81;4841430;29;20070;-88
2022/04/23 08:57:49;;;;;;;38.60;15.07;;;;;;;8.80;86.42;91599.00;4849026;29;20059;-91
2022/04/23 09:00:16;;;;;;;33.05;13.32;;;;;;;8.84;85.35;91612.25;4834767;29;20551;-90
2022/04/23 09:02:44;;;;;;;36.63;13.23;;;;;;;8.80;86.26;91606.81;4825711;24;20095;-78
2022/04/23 09:05:13;;;;;;;39.38;13.82;;;;;;;8.82;85.70;91607.31;4833080;29;20058;-78
2022/04/23 09:07:50;;;;;;;42.53;13.70;;;;;;;8.62;86.05;91616.34;4832014;29;20135;-78
2022/04/23 09:10:16;;;;;;;35.83;14.30;;;;;;;8.67;85.89;91618.09;4828327;29;20048;-78
2022/04/23 09:12:56;;;;;;;39.88;14.38;;;;;;;8.72;87.05;91623.97;4837299;29;20045;-78
2022/04/23 09:23:44;;;;;;;100.05;35.92;;;;;;;8.49;88.16;91630.22;4798744;29;20034;-78
2022/04/23 09:26:20;;;;;;;37.95;15.52;;;;;;;8.59;88.01;91629.22;4822615;29;20381;-78
2022/04/23 09:28:50;;;;;;;44.50;16.05;;;;;;;8.62;88.30;91631.25;4828959;29;20125;-78
2022/04/23 09:31:16;;;;;;;39.58;15.85;;;;;;;8.69;88.68;91629.78;4782643;29;20063;-79
2022/04/23 09:33:49;;;;;;;33.78;14.90;;;;;;;8.77;89.66;91625.69;4813069;29;20523;-79
2022/04/23 09:36:15;;;;;;;47.83;15.30;;;;;;;8.95;87.96;91629.22;4827260;29;20094;-77
2022/04/23 09:38:41;;;;;;;47.08;16.08;;;;;;;8.88;88.06;91636.69;4801142;29;20450;-79
2022/04/23 09:41:15;;;;;;;43.05;15.57;;;;;;;8.71;89.26;91632.09;4835843;29;20045;-79
2022/04/23 09:43:45;;;;;;;45.03;15.85;;;;;;;8.86;88.08;91633.59;4831493;29;20034;-79
2022/04/23 09:46:12;;;;;;;45.58;16.38;;;;;;;8.76;89.19;91639.81;4828589;29;20050;-78
2022/04/23 09:48:39;;;;;;;51.17;17.25;;;;;;;8.59;90.23;91637.06;4837791;29;20042;-80
2022/04/23 09:51:26;;;;;;;44.47;17.25;;;;;;;8.49;91.74;91623.19;4833773;29;20168;-80
2022/04/23 09:53:55;;;;;;;47.10;18.58;;;;;;;8.41;92.82;91623.09;4817143;29;20038;-80
2022/04/23 09:56:24;;;;;;;50.92;19.13;;;;;;;8.51;92.73;91628.06;4834821;29;22186;-81
2022/04/23 09:58:50;;;;;;;49.90;18.20;;;;;;;8.61;92.38;91629.72;4825252;29;20034;-81
2022/04/23 10:01:20;;;;;;;54.03;19.85;;;;;;;8.61;93.40;91627.09;4819472;29;20696;-79
2022/04/23 10:03:49;;;;;;;51.78;19.58;;;;;;;8.77;92.29;91638.75;4816328;29;20130;-80
2022/04/23 10:06:18;;;;;;;43.72;19.60;;;;;;;8.83;92.05;91623.75;4833087;29;20662;-81
2022/04/23 10:08:47;;;;;;;52.67;19.55;;;;;;;8.92;90.61;91625.34;4831889;29;20362;-80
2022/04/23 10:11:27;;;;;;;68.10;25.80;;;;;;;9.09;91.07;91627.28;4816894;29;20709;-75
2022/04/23 10:13:56;;;;;;;86.90;33.50;;;;;;;9.19;93.94;91636.75;4841985;29;20492;-79
2022/04/23 10:16:22;;;;;;;45.22;17.83;;;;;;;9.09;89.52;91634.38;4829202;29;20103;-83
2022/04/23 10:18:48;;;;;;;43.15;17.17;;;;;;;8.93;87.74;91631.34;4830434;29;20128;-83
2022/04/23 10:21:25;;;;;;;45.95;16.67;;;;;;;8.86;90.78;91647.41;4812959;29;20037;-80
2022/04/23 10:24:23;;;;;;;58.30;20.63;;;;;;;8.77;92.07;91641.34;4828117;29;20038;-80
2022/04/23 10:26:59;;;;;;;46.78;19.10;;;;;;;8.78;92.62;91642.13;4828262;29;20058;-81
2022/04/23 10:29:27;;;;;;;42.33;15.52;;;;;;;8.71;89.91;91645.13;4817329;29;20046;-80
2022/04/23 10:32:11;;;;;;;39.72;15.40;;;;;;;8.74;90.19;91652.38;4840103;29;20044;-78
2022/04/23 10:34:39;;;;;;;48.50;17.13;;;;;;;8.64;92.01;91631.72;4841242;29;20042;-80
2022/04/23 10:37:27;;;;;;;40.63;15.77;;;;;;;8.75;90.76;91648.69;4829415;29;20049;-75
2022/04/23 10:39:52;;;;;;;46.83;15.63;;;;;;;8.59;90.63;91652.72;4845338;29;20042;-80
2022/04/23 10:42:25;;;;;;;39.67;15.68;;;;;;;8.32;93.73;91649.06;4814750;29;20285;-82
2022/04/23 10:44:55;;;;;;;47.90;19.02;;;;;;;8.49;94.67;91654.47;4841189;29;20469;-83
2022/04/23 10:47:34;;;;;;;51.03;17.50;;;;;;;8.66;94.10;91653.06;4839766;29;20041;-81
2022/04/23 10:50:26;;;;;;;35.85;14.98;;;;;;;8.66;90.88;91645.25;4827939;29;20054;-80
2022/04/23 10:52:55;;;;;;;29.15;13.30;;;;;;;8.64;92.44;91647.38;4832066;29;20042;-79
2022/04/23 10:55:22;;;;;;;37.17;14.52;;;;;;;8.58;92.97;91632.91;4842211;29;20041;-80
2022/04/23 10:57:50;;;;;;;38.00;14.35;;;;;;;8.65;93.30;91638.50;4826243;29;20045;-80
2022/04/23 11:00:18;;;;;;;32.75;12.98;;;;;;;8.74;91.70;91636.72;4842730;29;20038;-81
2022/04/23 11:02:48;;;;;;;26.30;12.50;;;;;;;8.76;91.67;91632.00;4834956;29;20417;-82
2022/04/23 11:14:39;;;;;;;28.67;11.35;;;;;;;8.68;91.88;91632.69;4833463;29;20038;-81
2022/04/23 11:17:07;;;;;;;30.90;13.13;;;;;;;8.63;94.39;91636.19;4841771;29;20057;-81
2022/04/23 11:19:32;;;;;;;25.45;10.85;;;;;;;8.58;91.65;91628.47;4843407;29;20531;-80
2022/04/23 11:21:58;;;;;;;29.00;11.80;;;;;;;8.70;92.95;91625.34;4837104;29;20045;-81
2022/04/23 11:24:24;;;;;;;29.15;11.45;;;;;;;8.68;93.15;91624.84;4841634;29;20038;-81
2022/04/23 11:26:51;;;;;;;25.80;11.68;;;;;;;8.71;92.21;91630.28;4827602;29;20057;-79
2022/04/23 11:29:21;;;;;;;25.98;10.10;;;;;;;8.71;89.50;91624.25;4829826;29;20050;-80
2022/04/23 11:31:51;;;;;;;25.65;11.00;;;;;;;8.72;89.54;91623.97;4826530;29;20039;-82
2022/04/23 11:34:17;;;;;;;42.60;14.65;;;;;;;8.64;91.27;91623.91;4816414;29;20471;-81
2022/04/23 11:36:43;;;;;;;25.13;12.25;;;;;;;8.61;91.50;91621.88;4829464;29;20400;-80
2022/04/23 11:39:10;;;;;;;28.60;12.07;;;;;;;8.51;92.66;91617.66;4837985;29;20117;-79
2022/04/23 11:41:48;;;;;;;20.92;10.40;;;;;;;8.29;93.66;91628.78;4847034;29;20423;-80
2022/04/23 11:47:11;;;;;;;34.47;13.60;;;;;;;8.28;95.70;91614.19;4839488;29;20041;-81
2022/04/23 11:49:37;;;;;;;21.77;10.55;;;;;;;8.25;93.66;91620.00;4826789;29;20045;-80
2022/04/23 11:52:08;;;;;;;23.63;11.63;;;;;;;8.02;95.52;91614.72;4829404;29;20038;-82
2022/04/23 11:54:54;;;;;;;25.40;10.63;;;;;;;7.96;95.74;91623.69;4838257;29;20074;-79
2022/04/23 11:57:19;;;;;;;25.95;12.65;;;;;;;7.98;97.34;91612.97;4846774;29;20486;-78
2022/04/23 11:59:47;;;;;;;24.17;11.90;;;;;;;8.02;96.88;91609.50;4847068;29;20106;-79
2022/04/23 12:02:29;;;;;;;24.13;12.18;;;;;;;8.07;98.93;91601.56;4847748;29;20042;-81
2022/04/23 12:04:59;;;;;;;35.30;15.68;;;;;;;8.00;100.00;91606.41;4815345;29;20049;-79
2022/04/23 12:07:27;;;;;;;33.70;15.73;;;;;;;8.00;99.71;91608.25;4828230;29;20042;-80
2022/04/23 12:09:58;;;;;;;27.83;14.38;;;;;;;7.87;99.02;91605.34;4848949;29;20038;-79
2022/04/23 12:12:29;;;;;;;32.70;15.73;;;;;;;7.97;100.00;91596.59;4829595;29;20462;-79
2022/04/23 12:14:57;;;;;;;23.25;11.07;;;;;;;8.06;97.56;91607.06;4830685;29;20041;-80
2022/04/23 12:17:27;;;;;;;28.38;13.35;;;;;;;8.18;99.34;91609.19;4838193;29;20038;-79
2022/04/23 12:19:57;;;;;;;28.88;14.90;;;;;;;8.27;99.26;91602.22;4831440;29;20046;-79
2022/04/23 12:22:25;;;;;;;37.97;14.32;;;;;;;8.38;99.56;91600.19;4845634;29;20048;-79
2022/04/23 12:25:05;;;;;;;29.55;15.00;;;;;;;8.53;99.12;91579.78;4830177;29;20037;-79
2022/04/23 12:27:30;;;;;;;27.58;13.25;;;;;;;8.64;98.55;91574.31;4842114;29;20030;-78
2022/04/23 12:40:58;;;;;;;22.00;10.95;;;;;;;8.82;97.58;91576.00;4844852;29;20120;-80
2022/04/23 12:43:32;;;;;;;17.88;10.20;;;;;;;8.82;97.56;91576.00;4849658;29;20038;-79
2022/04/23 12:46:05;;;;;;;18.60;9.73;;;;;;;8.82;97.52;91565.56;4845705;29;20113;-79
2022/04/23 12:48:33;;;;;;;17.25;9.57;;;;;;;8.80;97.61;91575.50;4820867;29;20171;-79
2022/04/23 12:51:06;;;;;;;18.05;8.35;;;;;;;8.65;95.22;91571.44;4827592;29;20113;-78
2022/04/23 12:53:34;;;;;;;18.83;8.07;;;;;;;8.67;94.05;91571.91;4836501;29;20034;-79
2022/04/23 12:56:02;;;;;;;19.83;8.82;;;;;;;8.66;94.55;91561.75;4828356;29;20070;-81
2022/04/23 12:58:29;;;;;;;15.35;8.57;;;;;;;8.66;94.08;91567.75;4832471;29;20034;-81
2022/04/23 13:00:55;;;;;;;15.07;9.13;;;;;;;8.71;94.42;91556.41;4833466;29;20424;-80
2022/04/23 13:05:49;;;;;;;16.85;9.27;;;;;;;8.83;95.43;91567.09;4840447;29;20097;-80
2022/04/23 13:11:24;;;;;;;13.77;7.70;;;;;;;8.70;92.83;91563.47;4817155;29;20042;-79